Time;durP1;ratioP1;P1;durP2;ratioP2;P2;SDS_P1;SDS_P2;PMS_P1;PMS_P2;Temp;Humidity;BMP_temperature;BMP_pressure;BME280_temperature;BME280_humidity;BME280_pressure;Samples;Min_cycle;Max_cycle;Signal;HPM_P1;HPM_P2
2024/01/14 00:01:55;;;;;;;89.03;19.75;;;-4.00;99.90;;;;;;5038280;28;20102;-67
2024/01/14 00:04:21;;;;;;;86.00;19.13;;;-4.00;99.90;;;;;;5028167;28;20045;-66
2024/01/14 00:06:47;;;;;;;102.93;20.63;;;-3.80;99.90;;;;;;5031258;28;20051;-65
2024/01/14 00:09:13;;;;;;;96.25;21.08;;;-3.80;99.90;;;;;;5032768;28;20831;-67
2024/01/14 00:11:39;;;;;;;90.10;21.83;;;-3.80;99.90;;;;;;5013074;28;20033;-69
2024/01/14 00:14:04;;;;;;;79.55;19.17;;;-3.90;99.90;;;;;;5039745;28;20041;-64
2024/01/14 00:16:34;;;;;;;89.57;19.85;;;-4.00;99.90;;;;;;5031284;28;20045;-66
2024/01/14 00:19:04;;;;;;;89.90;19.65;;;-4.00;99.90;;;;;;5022595;28;20045;-67
2024/01/14 00:21:30;;;;;;;78.38;17.55;;;-4.00;99.90;;;;;;5028134;28;20076;-67
2024/01/14 00:23:56;;;;;;;91.40;18.65;;;-4.00;99.90;;;;;;5027405;28;20490;-65
2024/01/14 00:26:24;;;;;;;92.82;20.92;;;-4.10;99.90;;;;;;5033950;28;20086;-65
2024/01/14 00:28:52;;;;;;;88.15;20.35;;;-4.10;99.90;;;;;;5024398;28;20846;-69
2024/01/14 00:31:18;;;;;;;88.68;18.75;;;-4.10;99.90;;;;;;5017766;28;20033;-68
2024/01/14 00:33:43;;;;;;;89.85;20.15;;;-4.00;99.90;;;;;;5047006;28;20056;-69
2024/01/14 00:36:09;;;;;;;82.88;19.60;;;-4.00;99.90;;;;;;5028372;28;20036;-69
2024/01/14 00:38:35;;;;;;;79.30;18.58;;;-4.10;99.90;;;;;;5013541;28;20057;-70
2024/01/14 00:41:00;;;;;;;75.28;18.52;;;-4.00;99.90;;;;;;5034681;28;20073;-65
2024/01/14 00:43:27;;;;;;;82.20;18.42;;;-4.10;99.90;;;;;;5023350;28;20131;-67
2024/01/14 00:45:53;;;;;;;90.10;18.58;;;-4.20;99.90;;;;;;5031162;28;20078;-67
2024/01/14 00:48:18;;;;;;;77.78;15.88;;;-4.20;99.90;;;;;;5030093;28;20057;-70
2024/01/14 00:50:44;;;;;;;80.63;18.42;;;-4.20;99.90;;;;;;5017593;28;20078;-69
2024/01/14 00:53:10;;;;;;;70.40;17.70;;;-4.20;99.90;;;;;;5038630;28;20048;-66
2024/01/14 00:55:36;;;;;;;76.78;16.73;;;-4.30;99.90;;;;;;5023714;28;20033;-70
2024/01/14 00:58:02;;;;;;;67.60;17.13;;;-4.20;99.90;;;;;;5029427;28;20048;-64
2024/01/14 01:00:28;;;;;;;77.28;18.70;;;-4.30;99.90;;;;;;5019779;28;20041;-66
2024/01/14 01:02:53;;;;;;;78.57;17.38;;;-4.30;99.90;;;;;;5024695;28;20033;-66
2024/01/14 01:05:19;;;;;;;76.50;17.40;;;-4.20;99.90;;;;;;5031395;28;20599;-67
2024/01/14 01:07:45;;;;;;;71.85;16.10;;;-4.30;99.90;;;;;;5029979;28;20580;-65
2024/01/14 01:10:11;;;;;;;67.65;16.38;;;-4.30;99.90;;;;;;5016434;28;20099;-67
2024/01/14 01:12:38;;;;;;;68.72;16.77;;;-4.30;99.90;;;;;;5037876;28;20033;-69
2024/01/14 01:15:07;;;;;;;61.00;14.90;;;-4.30;99.90;;;;;;5024221;28;20095;-67
2024/01/14 01:17:34;;;;;;;67.53;16.98;;;-4.30;99.90;;;;;;5025811;28;20738;-65
2024/01/14 01:20:00;;;;;;;61.88;15.05;;;-4.30;99.90;;;;;;5028628;28;20152;-65
2024/01/14 01:22:26;;;;;;;58.22;15.15;;;-4.30;99.90;;;;;;5030279;28;20037;-68
2024/01/14 01:24:51;;;;;;;70.55;15.95;;;-4.30;99.90;;;;;;5028290;28;20513;-67
2024/01/14 01:27:17;;;;;;;64.47;14.05;;;-4.30;99.90;;;;;;5022209;28;20045;-63
2024/01/14 01:29:43;;;;;;;51.10;12.98;;;-4.30;99.90;;;;;;5019253;28;20056;-65
2024/01/14 01:32:09;;;;;;;61.63;15.40;;;-4.30;99.90;;;;;;5040047;28;20057;-70
2024/01/14 01:34:35;;;;;;;52.65;14.00;;;-4.40;99.90;;;;;;5025838;28;20554;-66
2024/01/14 01:37:02;;;;;;;70.00;16.52;;;-4.30;99.90;;;;;;5022312;28;20910;-65
2024/01/14 01:39:27;;;;;;;55.30;14.80;;;-4.30;99.90;;;;;;5034087;28;20033;-63
2024/01/14 01:41:53;;;;;;;54.70;14.10;;;-4.30;99.90;;;;;;5028365;28;20036;-63
2024/01/14 01:44:19;;;;;;;61.40;15.13;;;-4.30;99.90;;;;;;5035955;28;20096;-69
2024/01/14 01:46:45;;;;;;;55.78;13.95;;;-4.30;99.90;;;;;;5027073;28;20041;-67
2024/01/14 01:49:11;;;;;;;57.72;15.48;;;-4.30;99.90;;;;;;5023972;28;20616;-69
2024/01/14 01:51:40;;;;;;;66.28;15.40;;;-4.30;99.90;;;;;;5039616;28;20104;-70
2024/01/14 01:54:08;;;;;;;66.50;16.58;;;-4.30;99.90;;;;;;5065403;28;20036;-66
2024/01/14 01:56:37;;;;;;;68.53;17.17;;;-4.30;99.90;;;;;;5033677;28;20110;-67
2024/01/14 01:59:04;;;;;;;72.07;15.70;;;-4.30;99.90;;;;;;5035437;28;20045;-66
2024/01/14 02:01:32;;;;;;;58.95;14.63;;;-4.30;99.90;;;;;;5035824;28;20040;-63
2024/01/14 02:03:59;;;;;;;69.70;16.58;;;-4.30;99.90;;;;;;5038197;28;20045;-62
2024/01/14 02:06:27;;;;;;;71.18;16.55;;;-4.30;99.90;;;;;;5031757;28;20529;-66
2024/01/14 02:08:53;;;;;;;59.75;15.25;;;-4.30;99.90;;;;;;5025777;28;20056;-64
2024/01/14 02:11:20;;;;;;;62.40;16.35;;;-4.30;99.90;;;;;;5026665;28;20029;-63
2024/01/14 02:13:46;;;;;;;62.13;14.52;;;-4.30;99.90;;;;;;5025603;28;20064;-69
2024/01/14 02:16:12;;;;;;;70.63;16.80;;;-4.30;99.90;;;;;;5033065;28;20057;-65
2024/01/14 02:18:38;;;;;;;66.80;15.98;;;-4.30;99.90;;;;;;5031225;28;20030;-70
2024/01/14 02:21:05;;;;;;;61.38;16.02;;;-4.30;99.90;;;;;;5021949;28;20035;-66
2024/01/14 02:23:37;;;;;;;68.85;16.27;;;-4.30;99.90;;;;;;5046218;28;20143;-63
2024/01/14 02:26:03;;;;;;;69.57;17.77;;;-4.30;99.90;;;;;;5032967;28;20084;-66
2024/01/14 02:28:30;;;;;;;74.82;19.08;;;-4.20;99.90;;;;;;5026996;28;20493;-66
2024/01/14 02:30:56;;;;;;;76.03;19.65;;;-4.20;99.90;;;;;;5040057;28;20025;-67
2024/01/14 02:33:23;;;;;;;74.40;18.83;;;-4.20;99.90;;;;;;5027546;28;20045;-69
2024/01/14 02:35:49;;;;;;;74.10;19.00;;;-4.20;99.90;;;;;;5031006;28;21562;-64
2024/01/14 02:38:15;;;;;;;73.95;19.98;;;-4.20;99.90;;;;;;5028037;28;20017;-66
2024/01/14 02:40:40;;;;;;;75.18;17.73;;;-4.20;99.90;;;;;;5019600;28;20702;-71
2024/01/14 02:43:06;;;;;;;74.80;20.05;;;-4.10;99.90;;;;;;5046094;28;20026;-65
2024/01/14 02:45:31;;;;;;;79.38;19.95;;;-4.20;99.90;;;;;;5029569;28;20029;-66
2024/01/14 02:47:57;;;;;;;80.05;19.55;;;-4.10;99.90;;;;;;5017212;28;20045;-66
2024/01/14 02:50:23;;;;;;;81.45;20.17;;;-4.10;99.90;;;;;;5034597;28;20040;-68
2024/01/14 02:52:49;;;;;;;81.45;19.98;;;-4.20;99.90;;;;;;5029903;28;20041;-70
2024/01/14 02:55:14;;;;;;;73.68;18.60;;;-4.20;99.90;;;;;;5032944;28;20055;-69
2024/01/14 02:57:40;;;;;;;76.22;18.75;;;-4.20;99.90;;;;;;5024803;28;20033;-70
2024/01/14 03:00:07;;;;;;;80.70;19.33;;;-4.20;99.90;;;;;;5009458;28;20470;-65
2024/01/14 03:02:33;;;;;;;80.43;20.30;;;-4.10;99.90;;;;;;5042454;28;20033;-68
2024/01/14 03:04:59;;;;;;;84.82;19.15;;;-4.10;99.90;;;;;;5027112;28;20032;-68
2024/01/14 03:07:24;;;;;;;81.00;20.60;;;-4.00;99.90;;;;;;5024342;28;20048;-69
2024/01/14 03:09:50;;;;;;;78.10;20.42;;;-4.00;99.90;;;;;;5032348;28;20533;-69
2024/01/14 03:12:15;;;;;;;79.32;20.63;;;-4.00;99.90;;;;;;5023490;28;20087;-70
2024/01/14 03:14:41;;;;;;;85.45;21.10;;;-4.00;99.90;;;;;;5035598;28;20160;-66
2024/01/14 03:17:07;;;;;;;71.50;19.38;;;-4.00;99.90;;;;;;5022657;28;20043;-68
2024/01/14 03:19:32;;;;;;;72.70;18.67;;;-4.00;99.90;;;;;;5008298;28;20446;-64
2024/01/14 03:22:00;;;;;;;79.50;20.40;;;-4.00;99.90;;;;;;5027927;28;20029;-67
2024/01/14 03:24:25;;;;;;;69.47;18.35;;;-4.00;99.90;;;;;;4999163;28;20038;-63
2024/01/14 03:26:51;;;;;;;72.68;18.30;;;-4.00;99.90;;;;;;4999371;28;20457;-64
2024/01/14 03:29:16;;;;;;;74.10;19.02;;;-4.00;99.90;;;;;;5007672;28;20577;-65
2024/01/14 03:31:42;;;;;;;72.68;19.13;;;-4.00;99.90;;;;;;4994572;28;20730;-66
2024/01/14 03:34:08;;;;;;;83.65;20.00;;;-4.00;99.90;;;;;;4988552;28;20165;-64
2024/01/14 03:36:33;;;;;;;74.90;18.92;;;-4.00;99.90;;;;;;5001270;28;20029;-68
2024/01/14 03:38:59;;;;;;;68.38;18.48;;;-3.90;99.90;;;;;;4992990;28;20018;-68
2024/01/14 03:41:25;;;;;;;83.38;18.80;;;-3.90;99.90;;;;;;5017306;28;21466;-66
2024/01/14 03:43:50;;;;;;;73.85;18.25;;;-3.90;99.90;;;;;;5017783;28;20053;-64
2024/01/14 03:46:16;;;;;;;73.70;17.23;;;-3.90;99.90;;;;;;5013289;28;20056;-66
2024/01/14 03:48:42;;;;;;;61.42;16.65;;;-3.90;99.90;;;;;;5021707;28;20053;-67
2024/01/14 03:51:07;;;;;;;85.28;18.30;;;-3.90;99.90;;;;;;5017047;28;20029;-63
2024/01/14 03:53:33;;;;;;;84.82;18.73;;;-3.90;99.90;;;;;;5001509;28;20124;-63
2024/01/14 03:55:59;;;;;;;65.03;17.75;;;-3.90;99.90;;;;;;5008446;28;20634;-69
2024/01/14 03:58:25;;;;;;;71.30;19.27;;;-3.90;99.90;;;;;;5001953;28;20065;-66
2024/01/14 04:00:51;;;;;;;74.72;18.15;;;-3.90;99.90;;;;;;5018048;28;20041;-63
2024/01/14 04:03:17;;;;;;;68.35;16.55;;;-3.90;99.90;;;;;;5008740;28;20079;-69
2024/01/14 04:05:42;;;;;;;73.57;17.13;;;-3.90;99.90;;;;;;5013969;28;20437;-63
2024/01/14 04:08:08;;;;;;;68.30;17.75;;;-3.80;99.90;;;;;;5034712;28;20986;-68
2024/01/14 04:10:34;;;;;;;74.05;19.80;;;-3.90;99.90;;;;;;5029507;28;20037;-70
2024/01/14 04:12:59;;;;;;;78.80;18.98;;;-3.80;99.90;;;;;;5028070;28;20044;-64
2024/01/14 04:15:25;;;;;;;81.43;20.08;;;-3.80;99.90;;;;;;5030261;28;20556;-68
2024/01/14 04:17:50;;;;;;;77.13;19.38;;;-3.80;99.90;;;;;;5022301;28;20072;-67
2024/01/14 04:20:16;;;;;;;73.25;19.83;;;-3.80;99.90;;;;;;5038201;28;20025;-65
2024/01/14 04:22:42;;;;;;;77.88;20.40;;;-3.70;99.90;;;;;;5027241;28;20025;-66
2024/01/14 04:25:07;;;;;;;82.13;18.77;;;-3.70;99.90;;;;;;5028173;28;20052;-65
2024/01/14 04:27:34;;;;;;;64.88;17.40;;;-3.70;99.90;;;;;;5029599;28;20044;-68
2024/01/14 04:30:00;;;;;;;72.63;17.33;;;-3.70;99.90;;;;;;5025817;28;20223;-64
2024/01/14 04:32:26;;;;;;;74.07;18.05;;;-3.70;99.90;;;;;;5033792;28;21057;-66
2024/01/14 04:34:51;;;;;;;80.18;17.60;;;-3.70;99.90;;;;;;5029683;28;20038;-68
2024/01/14 04:37:17;;;;;;;88.82;19.45;;;-3.80;99.90;;;;;;5017933;28;20160;-66
2024/01/14 04:39:42;;;;;;;75.68;18.52;;;-3.80;99.90;;;;;;5034470;28;20765;-66
2024/01/14 04:42:08;;;;;;;76.28;19.05;;;-3.80;99.90;;;;;;5025892;28;20083;-66
2024/01/14 04:44:34;;;;;;;74.70;18.55;;;-3.90;99.90;;;;;;5037391;28;20087;-67
2024/01/14 04:47:00;;;;;;;85.60;19.30;;;-4.00;99.90;;;;;;5039205;28;20111;-64
2024/01/14 04:49:25;;;;;;;86.28;21.08;;;-4.00;99.90;;;;;;5021012;28;20045;-66
2024/01/14 04:51:51;;;;;;;79.80;19.17;;;-4.00;99.90;;;;;;5032594;28;20629;-65
2024/01/14 04:54:16;;;;;;;84.53;18.17;;;-4.10;99.90;;;;;;5030973;28;20127;-66
2024/01/14 04:56:42;;;;;;;86.70;20.27;;;-4.10;99.90;;;;;;5014969;28;20030;-69
2024/01/14 04:59:08;;;;;;;88.80;20.52;;;-4.10;99.90;;;;;;5024212;28;20029;-65
2024/01/14 05:01:34;;;;;;;85.93;21.65;;;-4.10;99.90;;;;;;5024994;28;20670;-69
2024/01/14 05:04:00;;;;;;;83.78;20.30;;;-4.10;99.90;;;;;;5027073;28;20055;-66
2024/01/14 05:06:26;;;;;;;72.35;20.02;;;-4.00;99.90;;;;;;5038583;28;20068;-69
2024/01/14 05:08:51;;;;;;;84.55;19.83;;;-4.00;99.90;;;;;;5025521;28;20056;-69
2024/01/14 05:11:17;;;;;;;82.80;20.27;;;-3.90;99.90;;;;;;5014398;28;20139;-66
2024/01/14 05:13:42;;;;;;;80.40;19.92;;;-3.90;99.90;;;;;;5029308;28;20094;-66
2024/01/14 05:16:09;;;;;;;81.28;19.08;;;-3.80;99.90;;;;;;5027688;28;20132;-67
2024/01/14 05:18:35;;;;;;;87.97;19.88;;;-3.80;99.90;;;;;;5044433;28;20029;-69
2024/01/14 05:21:02;;;;;;;102.50;22.48;;;-3.90;99.90;;;;;;5030754;28;20029;-68
2024/01/14 05:23:28;;;;;;;97.78;22.08;;;-4.00;99.90;;;;;;5035476;28;20056;-63
2024/01/14 05:25:53;;;;;;;97.50;22.42;;;-4.00;99.90;;;;;;5039925;28;20611;-68
2024/01/14 05:28:19;;;;;;;100.13;21.80;;;-4.10;99.90;;;;;;5033003;28;20045;-66
2024/01/14 05:30:47;;;;;;;85.65;19.13;;;-4.10;99.90;;;;;;5034944;28;20053;-66
2024/01/14 05:33:12;;;;;;;109.18;23.33;;;-4.10;99.90;;;;;;5033805;28;20035;-68
2024/01/14 05:35:38;;;;;;;94.88;20.98;;;-4.10;99.90;;;;;;5024810;28;20677;-70
2024/01/14 05:38:03;;;;;;;96.60;21.02;;;-4.10;99.90;;;;;;5062553;28;20131;-69
2024/01/14 05:40:29;;;;;;;109.95;23.02;;;-4.10;99.90;;;;;;5032892;28;20060;-64
2024/01/14 05:42:55;;;;;;;96.47;20.90;;;-4.20;99.90;;;;;;5027266;28;20151;-64
2024/01/14 05:45:20;;;;;;;88.68;19.80;;;-4.20;99.90;;;;;;5040524;28;20033;-62
2024/01/14 05:47:46;;;;;;;91.22;18.48;;;-4.20;99.90;;;;;;5029216;28;20057;-71
2024/01/14 05:50:12;;;;;;;78.47;18.40;;;-4.20;99.90;;;;;;5033819;28;20520;-66
2024/01/14 05:52:38;;;;;;;78.07;16.55;;;-4.30;99.90;;;;;;5031206;28;20210;-70
2024/01/14 05:55:04;;;;;;;89.80;19.27;;;-4.30;99.90;;;;;;5029102;28;21396;-66
2024/01/14 05:57:30;;;;;;;97.82;19.83;;;-4.30;99.90;;;;;;5058903;28;20029;-63
2024/01/14 05:59:56;;;;;;;78.68;19.25;;;-4.30;99.90;;;;;;5029355;28;20022;-66
2024/01/14 06:02:22;;;;;;;86.40;18.02;;;-4.30;99.90;;;;;;5028634;28;21516;-64
2024/01/14 06:04:47;;;;;;;84.68;19.95;;;-4.30;99.90;;;;;;5039878;28;20082;-63
2024/01/14 06:07:13;;;;;;;84.88;18.60;;;-4.30;99.90;;;;;;5029004;28;20021;-65
2024/01/14 06:09:39;;;;;;;83.25;19.45;;;-4.20;99.90;;;;;;5043059;28;20052;-71
2024/01/14 06:12:05;;;;;;;91.35;19.98;;;-4.20;99.90;;;;;;5032842;28;20029;-69
2024/01/14 06:14:30;;;;;;;84.72;19.80;;;-4.30;99.90;;;;;;5023019;28;20659;-67
2024/01/14 06:16:56;;;;;;;92.63;19.52;;;-4.20;99.90;;;;;;5047648;28;20036;-67
2024/01/14 06:19:22;;;;;;;93.97;19.83;;;-4.20;99.90;;;;;;5022249;28;20099;-69
2024/01/14 06:21:48;;;;;;;80.85;19.60;;;-4.20;99.90;;;;;;5022973;28;20048;-65
2024/01/14 06:24:14;;;;;;;92.78;19.75;;;-4.20;99.90;;;;;;5036869;28;20088;-67
2024/01/14 06:26:40;;;;;;;86.13;18.05;;;-4.20;99.90;;;;;;5029241;28;20499;-71
2024/01/14 06:29:05;;;;;;;83.22;18.73;;;-4.30;99.90;;;;;;5034123;28;20044;-65
2024/01/14 06:31:31;;;;;;;79.53;18.63;;;-4.30;99.90;;;;;;5027198;28;20064;-66
2024/01/14 06:33:56;;;;;;;84.30;17.77;;;-4.20;99.90;;;;;;5014261;28;20068;-67
2024/01/14 06:36:22;;;;;;;85.55;17.77;;;-4.20;99.90;;;;;;5037070;28;20087;-61
2024/01/14 06:38:48;;;;;;;76.05;16.83;;;-4.20;99.90;;;;;;5025675;28;20037;-61
2024/01/14 06:41:18;;;;;;;63.72;15.50;;;-4.20;99.90;;;;;;5035882;28;20043;-67
2024/01/14 06:43:45;;;;;;;69.22;14.77;;;-4.20;99.90;;;;;;5034353;28;20037;-65
2024/01/14 06:46:11;;;;;;;56.80;12.40;;;-4.30;99.90;;;;;;5031878;28;20037;-62
2024/01/14 06:48:36;;;;;;;59.75;13.18;;;-4.30;99.90;;;;;;5033165;28;20048;-69
2024/01/14 06:51:02;;;;;;;58.10;13.00;;;-4.30;99.90;;;;;;5026841;28;20057;-61
2024/01/14 06:53:28;;;;;;;53.88;12.60;;;-4.30;99.90;;;;;;5030309;28;20041;-61
2024/01/14 06:55:54;;;;;;;68.30;14.82;;;-4.30;99.90;;;;;;5028415;28;20101;-65
2024/01/14 06:58:19;;;;;;;72.55;17.65;;;-4.30;99.90;;;;;;5035597;28;20030;-62
2024/01/14 07:00:45;;;;;;;92.90;19.27;;;-4.30;99.90;;;;;;5036895;28;20060;-62
2024/01/14 07:03:11;;;;;;;92.07;20.65;;;-4.30;99.90;;;;;;5031237;28;20116;-62
2024/01/14 07:05:36;;;;;;;74.55;15.18;;;-4.30;99.90;;;;;;5027462;28;20034;-62
2024/01/14 07:08:04;;;;;;;81.80;16.50;;;-4.30;99.90;;;;;;5042460;28;20040;-62
2024/01/14 07:10:30;;;;;;;82.60;17.92;;;-4.30;99.90;;;;;;5033058;28;20065;-62
2024/01/14 07:12:56;;;;;;;74.10;17.17;;;-4.40;99.90;;;;;;5025692;28;20060;-67
2024/01/14 07:15:22;;;;;;;76.28;17.90;;;-4.40;99.90;;;;;;5033394;28;20042;-62
2024/01/14 07:17:48;;;;;;;82.22;17.75;;;-4.30;99.90;;;;;;5046617;28;20055;-61
2024/01/14 07:20:13;;;;;;;77.97;16.35;;;-4.40;99.90;;;;;;5046494;28;20029;-65
2024/01/14 07:22:39;;;;;;;72.93;16.63;;;-4.40;99.90;;;;;;5050156;28;20493;-69
2024/01/14 07:25:05;;;;;;;73.70;17.67;;;-4.40;99.90;;;;;;5049970;28;20385;-63
2024/01/14 07:27:30;;;;;;;65.93;14.50;;;-4.40;99.90;;;;;;5050408;28;20029;-63
2024/01/14 07:29:56;;;;;;;66.10;14.88;;;-4.40;99.90;;;;;;5031813;28;20480;-64
2024/01/14 07:32:22;;;;;;;63.25;14.18;;;-4.40;99.90;;;;;;5010742;28;20458;-61
2024/01/14 07:34:47;;;;;;;66.75;14.18;;;-4.40;99.90;;;;;;5009649;28;20041;-61
2024/01/14 07:37:13;;;;;;;51.85;13.23;;;-4.50;99.90;;;;;;5015206;28;20773;-61
2024/01/14 07:39:39;;;;;;;64.47;14.25;;;-4.50;99.90;;;;;;5038793;28;20188;-68
2024/01/14 07:42:05;;;;;;;74.38;16.10;;;-4.50;99.90;;;;;;5029580;28;20033;-63
2024/01/14 07:44:30;;;;;;;66.93;14.93;;;-4.50;99.90;;;;;;5030077;28;20120;-61
2024/01/14 07:46:56;;;;;;;61.67;15.27;;;-4.40;99.90;;;;;;5029441;28;20029;-63
2024/01/14 07:49:21;;;;;;;69.28;15.02;;;-4.50;99.90;;;;;;5029101;28;20410;-63
2024/01/14 07:51:47;;;;;;;77.60;16.45;;;-4.50;99.90;;;;;;5034514;28;20024;-61
2024/01/14 07:54:13;;;;;;;59.42;14.05;;;-4.40;99.90;;;;;;5039275;28;20073;-61
2024/01/14 07:56:38;;;;;;;66.18;13.40;;;-4.40;99.90;;;;;;5028179;28;20052;-64
2024/01/14 07:59:04;;;;;;;62.45;13.25;;;-4.40;99.90;;;;;;5028032;28;20033;-62
2024/01/14 08:01:30;;;;;;;53.97;13.05;;;-4.40;99.90;;;;;;5030315;28;20029;-62
2024/01/14 08:03:55;;;;;;;58.25;14.13;;;-4.30;99.90;;;;;;5028417;28;20034;-63
2024/01/14 08:06:23;;;;;;;50.33;12.30;;;-4.30;99.90;;;;;;5029230;28;20389;-62
2024/01/14 08:08:49;;;;;;;64.05;15.05;;;-4.30;99.90;;;;;;5028496;28;20021;-65
2024/01/14 08:11:14;;;;;;;64.72;15.05;;;-4.30;99.90;;;;;;5029364;28;20044;-62
2024/01/14 08:13:40;;;;;;;50.35;12.85;;;-4.30;99.90;;;;;;5028159;28;20107;-61
2024/01/14 08:16:06;;;;;;;65.28;15.02;;;-4.20;99.90;;;;;;5028589;28;20025;-62
2024/01/14 08:18:32;;;;;;;59.35;14.63;;;-4.20;99.90;;;;;;5026827;28;20037;-62
2024/01/14 08:20:57;;;;;;;60.05;13.80;;;-4.20;99.90;;;;;;5028660;28;20029;-61
2024/01/14 08:23:23;;;;;;;74.00;15.20;;;-4.20;99.90;;;;;;5029187;28;20040;-61
2024/01/14 08:25:49;;;;;;;59.78;14.45;;;-4.20;99.90;;;;;;5028514;28;20061;-63
2024/01/14 08:28:14;;;;;;;61.75;15.35;;;-4.20;99.90;;;;;;5028868;28;20470;-64
2024/01/14 08:30:40;;;;;;;61.10;14.30;;;-4.10;99.90;;;;;;5029359;28;20033;-62
2024/01/14 08:33:06;;;;;;;58.45;13.35;;;-4.10;99.90;;;;;;5028191;28;20113;-64
2024/01/14 08:35:31;;;;;;;69.45;15.57;;;-4.10;99.90;;;;;;5028755;28;20053;-61
2024/01/14 08:37:57;;;;;;;52.42;13.52;;;-4.10;99.90;;;;;;5028143;28;20035;-61
2024/01/14 08:40:23;;;;;;;58.53;12.80;;;-4.10;99.90;;;;;;5027909;28;20032;-61
2024/01/14 08:42:49;;;;;;;60.17;15.10;;;-4.10;99.90;;;;;;5027697;28;20151;-65
2024/01/14 08:45:16;;;;;;;63.10;14.75;;;-4.10;99.90;;;;;;5029024;28;20498;-63
2024/01/14 08:47:42;;;;;;;59.67;14.85;;;-4.00;99.90;;;;;;5027465;28;20129;-62
2024/01/14 08:50:11;;;;;;;72.90;15.75;;;-4.00;99.90;;;;;;5028226;28;20182;-61
2024/01/14 08:52:38;;;;;;;59.22;14.85;;;-4.00;99.90;;;;;;5028876;28;20032;-61
2024/01/14 08:55:08;;;;;;;78.40;17.00;;;-4.00;99.90;;;;;;5028083;28;20037;-61
2024/01/14 08:57:33;;;;;;;69.18;15.25;;;-4.00;99.90;;;;;;5028618;28;20033;-64
2024/01/14 08:59:59;;;;;;;63.22;15.68;;;-4.00;99.90;;;;;;5028266;28;20038;-62
2024/01/14 09:02:28;;;;;;;74.97;16.77;;;-4.00;99.90;;;;;;5024767;28;20021;-64
2024/01/14 09:04:54;;;;;;;68.85;15.73;;;-4.00;99.90;;;;;;5008325;28;20125;-67
2024/01/14 09:07:19;;;;;;;65.05;16.05;;;-4.00;99.90;;;;;;5009051;28;20093;-62
2024/01/14 09:09:45;;;;;;;66.55;15.65;;;-4.00;99.90;;;;;;5007623;28;20128;-69
2024/01/14 09:12:11;;;;;;;79.40;17.35;;;-4.00;99.90;;;;;;5009378;28;20053;-63
2024/01/14 09:14:36;;;;;;;73.45;18.27;;;-3.90;99.90;;;;;;5026861;28;20041;-62
2024/01/14 09:17:02;;;;;;;92.80;21.77;;;-3.80;99.90;;;;;;5026902;28;20034;-62
2024/01/14 09:19:28;;;;;;;73.20;17.83;;;-3.80;99.90;;;;;;5028351;28;20065;-62
2024/01/14 09:21:54;;;;;;;82.47;19.92;;;-3.70;99.90;;;;;;5027699;28;20072;-67
2024/01/14 09:24:20;;;;;;;85.15;19.20;;;-3.70;99.90;;;;;;5028692;28;20060;-64
2024/01/14 09:26:45;;;;;;;79.65;19.45;;;-3.70;99.90;;;;;;5027990;28;20022;-71
2024/01/14 09:29:11;;;;;;;67.38;17.33;;;-3.70;99.90;;;;;;5027636;28;20035;-66
2024/01/14 09:31:37;;;;;;;76.25;18.88;;;-3.60;99.90;;;;;;5027862;28;20075;-62
2024/01/14 09:34:02;;;;;;;66.68;17.95;;;-3.60;99.90;;;;;;5026346;28;20069;-62
2024/01/14 09:36:30;;;;;;;76.97;18.10;;;-3.40;99.90;;;;;;5028291;28;20029;-62
2024/01/14 09:38:56;;;;;;;72.30;18.25;;;-3.40;99.90;;;;;;5027365;28;20028;-63
2024/01/14 09:42:00;;;;;;;81.45;18.55;;;-3.40;99.90;;;;;;5028713;28;20038;-62
2024/01/14 09:44:25;;;;;;;77.43;18.63;;;-3.40;99.90;;;;;;5016063;28;20075;-65
2024/01/14 09:46:51;;;;;;;83.18;18.90;;;-3.40;99.90;;;;;;5026149;28;20456;-66
2024/01/14 09:49:21;;;;;;;81.07;19.48;;;-3.40;99.90;;;;;;5028476;28;20474;-63
2024/01/14 09:51:49;;;;;;;77.88;18.88;;;-3.30;99.90;;;;;;5028218;28;20487;-71
2024/01/14 09:54:15;;;;;;;80.20;20.58;;;-3.10;99.90;;;;;;5027988;28;20037;-64
2024/01/14 09:56:41;;;;;;;82.85;20.88;;;-2.90;99.90;;;;;;5027708;28;20045;-62
2024/01/14 09:59:08;;;;;;;76.35;19.30;;;-2.90;99.90;;;;;;5029335;28;20221;-63
2024/01/14 10:01:34;;;;;;;82.82;18.70;;;-2.80;99.90;;;;;;5030220;28;20038;-62
2024/01/14 10:04:01;;;;;;;76.20;18.67;;;-2.90;99.90;;;;;;5030899;28;20434;-63
2024/01/14 10:06:28;;;;;;;78.78;19.35;;;-2.80;99.90;;;;;;5031925;28;20025;-63
2024/01/14 10:08:54;;;;;;;78.82;19.83;;;-2.70;99.90;;;;;;5030537;28;20040;-64
2024/01/14 10:11:19;;;;;;;78.55;19.50;;;-2.60;99.90;;;;;;5031976;28;20026;-63
2024/01/14 10:13:46;;;;;;;81.80;20.10;;;-2.60;99.90;;;;;;5031563;28;20037;-64
2024/01/14 10:16:12;;;;;;;88.30;20.35;;;-2.50;99.90;;;;;;5029321;28;20025;-64
2024/01/14 10:18:38;;;;;;;77.45;20.48;;;-2.50;99.90;;;;;;5031341;28;20065;-63
2024/01/14 10:21:04;;;;;;;70.72;18.92;;;-2.40;99.90;;;;;;5030731;28;20527;-66
2024/01/14 10:23:31;;;;;;;73.78;20.20;;;-2.30;99.90;;;;;;5031503;28;20067;-62
2024/01/14 10:26:01;;;;;;;80.50;19.77;;;-2.10;99.90;;;;;;5030615;28;20032;-64
2024/01/14 10:28:30;;;;;;;;;;;-1.80;99.90;;;;;;5031650;28;20037;-62
2024/01/14 10:30:56;;;;;;;68.88;17.85;;;-1.90;99.90;;;;;;5030323;28;20073;-64
2024/01/14 10:33:25;;;;;;;80.10;21.17;;;-1.90;99.90;;;;;;5031339;28;20072;-63
2024/01/14 10:35:50;;;;;;;68.10;19.95;;;-1.80;99.90;;;;;;5031030;28;20025;-70
2024/01/14 10:38:19;;;;;;;76.65;19.60;;;-1.80;99.90;;;;;;5030337;28;20095;-66
2024/01/14 10:40:45;;;;;;;73.80;19.83;;;-1.60;99.90;;;;;;5031151;28;20055;-66
2024/01/14 10:43:10;;;;;;;82.30;21.20;;;-1.50;99.90;;;;;;5012627;28;20033;-63
2024/01/14 10:45:36;;;;;;;70.63;20.23;;;-1.30;99.90;;;;;;5030563;28;20029;-65
2024/01/14 10:48:10;;;;;;;67.53;19.15;;;-1.10;99.90;;;;;;5029155;28;20524;-63
2024/01/14 10:50:36;;;;;;;71.40;20.48;;;-1.40;99.90;;;;;;5011297;28;20088;-63
2024/01/14 10:53:07;;;;;;;72.40;20.40;;;-1.60;99.90;;;;;;5009177;28;20034;-64
2024/01/14 10:55:45;;;;;;;71.47;20.10;;;-1.70;99.90;;;;;;5009920;28;20467;-63
2024/01/14 10:58:26;;;;;;;69.50;19.85;;;-1.70;99.90;;;;;;5018317;28;20799;-64
2024/01/14 11:00:54;;;;;;;73.22;19.52;;;-1.80;99.90;;;;;;5030406;28;20037;-70
2024/01/14 11:03:20;;;;;;;58.28;18.17;;;-1.60;99.90;;;;;;5030391;28;20033;-65
2024/01/14 11:05:46;;;;;;;65.57;19.33;;;-1.40;99.90;;;;;;5027836;28;20029;-64
2024/01/14 11:08:12;;;;;;;70.15;19.90;;;-1.30;99.90;;;;;;5029720;28;20116;-66
2024/01/14 11:10:39;;;;;;;65.15;18.80;;;-1.00;99.90;;;;;;5028988;28;20398;-66
2024/01/14 11:13:25;;;;;;;68.03;19.52;;;-0.70;99.90;;;;;;5029891;28;20030;-65
2024/01/14 11:16:12;;;;;;;72.07;19.98;;;-0.40;99.90;;;;;;5030323;28;20049;-65
2024/01/14 11:18:37;;;;;;;73.25;20.55;;;0.00;99.90;;;;;;5029782;28;20429;-64
2024/01/14 11:21:29;;;;;;;69.53;18.98;;;-0.20;99.90;;;;;;5029969;28;20087;-63
2024/01/14 11:23:57;;;;;;;63.25;19.40;;;-0.60;99.90;;;;;;4992340;28;20151;-70
2024/01/14 11:26:24;;;;;;;71.50;19.80;;;-0.70;99.90;;;;;;5030503;28;20036;-63
2024/01/14 11:28:51;;;;;;;72.00;20.42;;;-0.90;99.90;;;;;;5029982;28;20025;-66
2024/01/14 11:31:17;;;;;;;65.70;19.75;;;-0.80;99.90;;;;;;5029770;28;20152;-64
2024/01/14 11:33:46;;;;;;;72.55;18.98;;;-0.90;99.90;;;;;;5029815;28;20563;-63
2024/01/14 11:36:12;;;;;;;67.95;19.10;;;-1.00;99.90;;;;;;5029404;28;20041;-64
2024/01/14 11:38:58;;;;;;;61.85;19.73;;;-0.80;99.90;;;;;;5028322;28;20378;-63
2024/01/14 11:41:32;;;;;;;66.40;18.38;;;-0.70;99.90;;;;;;5030154;28;20032;-66
2024/01/14 11:44:08;;;;;;;65.63;18.83;;;-0.50;99.90;;;;;;5009690;28;20490;-70
2024/01/14 11:46:42;;;;;;;72.55;19.65;;;-0.40;99.90;;;;;;5010514;28;20548;-65
2024/01/14 11:49:17;;;;;;;66.85;18.10;;;-0.40;99.90;;;;;;5009119;28;20081;-63
2024/01/14 11:51:57;;;;;;;66.85;18.52;;;-0.40;99.90;;;;;;5008812;28;20372;-63
2024/01/14 11:54:24;;;;;;;67.90;18.58;;;-0.40;99.90;;;;;;5010022;28;20030;-63
2024/01/14 11:56:51;;;;;;;64.28;18.23;;;-0.40;99.90;;;;;;5014629;28;20065;-65
2024/01/14 11:59:17;;;;;;;62.15;18.48;;;-0.20;99.90;;;;;;5029311;28;20052;-65
2024/01/14 12:01:43;;;;;;;66.68;18.38;;;-0.10;99.90;;;;;;5029789;28;20036;-63
2024/01/14 12:04:08;;;;;;;67.68;19.58;;;-0.10;99.90;;;;;;5028885;28;20456;-63
2024/01/14 12:06:42;;;;;;;64.25;19.00;;;0.10;99.90;;;;;;5028433;28;20477;-65
2024/01/14 12:09:08;;;;;;;63.13;16.92;;;0.10;99.90;;;;;;5028809;28;20033;-64
2024/01/14 12:11:37;;;;;;;68.63;19.08;;;0.10;99.90;;;;;;5029404;28;20017;-67
2024/01/14 12:14:04;;;;;;;61.20;18.60;;;0.20;99.90;;;;;;5028569;28;20045;-64
2024/01/14 12:16:30;;;;;;;62.55;18.42;;;0.50;99.90;;;;;;5029268;28;20072;-65
2024/01/14 12:18:56;;;;;;;56.72;17.13;;;0.60;99.90;;;;;;5029260;28;20087;-70
2024/01/14 12:21:22;;;;;;;55.72;17.02;;;0.60;99.90;;;;;;5027896;28;20029;-65
2024/01/14 12:23:49;;;;;;;64.00;18.98;;;0.70;99.90;;;;;;5029275;28;20033;-64
2024/01/14 12:26:14;;;;;;;62.13;18.33;;;0.80;99.90;;;;;;5028130;28;20129;-65